Time;durP1;ratioP1;P1;durP2;ratioP2;P2;SDS_P1;SDS_P2;PMS_P1;PMS_P2;Temp;Humidity;BMP_temperature;BMP_pressure;BME280_temperature;BME280_humidity;BME280_pressure;Samples;Min_cycle;Max_cycle;Signal;HPM_P1;HPM_P2
2023/05/18 00:01:39;;;;;;;7.30;2.50;;;;;;;4.45;75.96;102074.70;108314;1259;73665;-74
2023/05/18 00:04:07;;;;;;;7.10;2.40;;;;;;;4.43;76.20;102068.71;108563;1259;61597;-74
2023/05/18 00:06:34;;;;;;;6.30;2.80;;;;;;;4.41;76.32;102070.42;108415;1259;59318;-74
2023/05/18 00:09:04;;;;;;;8.20;2.70;;;;;;;4.37;76.66;102065.56;108314;1265;73701;-73
2023/05/18 00:11:32;;;;;;;7.20;2.50;;;;;;;4.34;76.53;102066.66;108186;1259;71010;-73
2023/05/18 00:13:59;;;;;;;9.00;2.50;;;;;;;4.30;76.91;102065.50;108492;1259;71598;-73
2023/05/18 00:16:26;;;;;;;10.20;3.00;;;;;;;4.26;77.02;102063.66;108271;1259;60281;-73
2023/05/18 00:18:53;;;;;;;9.70;2.60;;;;;;;4.22;77.07;102064.13;108356;1259;61385;-73
2023/05/18 00:21:21;;;;;;;9.30;2.70;;;;;;;4.19;77.27;102067.63;108600;1259;74134;-74
2023/05/18 00:23:49;;;;;;;8.00;2.70;;;;;;;4.16;77.58;102070.09;108540;1259;69416;-74
2023/05/18 00:26:16;;;;;;;9.10;2.70;;;;;;;4.14;77.56;102069.38;108529;1260;72761;-74
2023/05/18 00:28:43;;;;;;;8.50;2.80;;;;;;;4.12;77.62;102071.27;108253;1259;59960;-73
2023/05/18 00:31:10;;;;;;;4.80;2.20;;;;;;;4.08;77.93;102073.38;108589;1259;60885;-74
2023/05/18 00:33:37;;;;;;;6.50;2.40;;;;;;;4.05;78.01;102074.65;108269;1259;74746;-73
2023/05/18 00:36:05;;;;;;;8.90;2.50;;;;;;;4.03;77.97;102073.23;108432;1259;71365;-73
2023/05/18 00:38:32;;;;;;;7.60;2.90;;;;;;;4.00;78.22;102076.89;108431;1259;71587;-74
2023/05/18 00:40:59;;;;;;;7.10;2.80;;;;;;;3.97;78.12;102075.52;108318;1259;61369;-73
2023/05/18 00:43:26;;;;;;;8.40;2.80;;;;;;;3.95;78.41;102075.31;108576;1259;59408;-73
2023/05/18 00:45:53;;;;;;;7.50;2.90;;;;;;;3.92;78.14;102074.99;108350;1259;73447;-73
2023/05/18 00:48:20;;;;;;;9.10;2.90;;;;;;;3.88;78.93;102073.82;108692;1260;71602;-74
2023/05/18 00:50:47;;;;;;;9.60;2.50;;;;;;;3.84;78.46;102069.72;108168;1259;72681;-74
2023/05/18 00:53:14;;;;;;;7.70;2.90;;;;;;;3.81;78.81;102073.25;108599;1261;61261;-74
2023/05/18 00:55:41;;;;;;;9.20;2.90;;;;;;;3.78;78.68;102076.41;108244;1261;61285;-73
2023/05/18 00:58:08;;;;;;;10.30;3.00;;;;;;;3.75;79.00;102078.48;108471;1259;74053;-74
2023/05/18 01:00:36;;;;;;;10.90;2.90;;;;;;;3.73;78.87;102079.66;108274;1263;71672;-73
2023/05/18 01:03:03;;;;;;;7.10;2.70;;;;;;;3.69;78.94;102080.58;108349;1259;70492;-73
2023/05/18 01:05:30;;;;;;;9.00;2.70;;;;;;;3.66;79.39;102081.80;108579;1259;59959;-74
2023/05/18 01:07:58;;;;;;;9.50;2.80;;;;;;;3.65;79.45;102087.33;108420;1259;59705;-74
2023/05/18 01:10:26;;;;;;;12.00;3.30;;;;;;;3.62;79.57;102085.04;108328;1259;74546;-74
2023/05/18 01:12:58;;;;;;;7.50;2.60;;;;;;;3.59;79.71;102084.36;108324;1259;69776;-73
2023/05/18 01:15:33;;;;;;;9.40;3.10;;;;;;;3.56;79.65;102084.77;108425;1259;72739;-73
2023/05/18 01:18:22;;;;;;;9.20;2.70;;;;;;;3.53;79.85;102084.94;108387;1260;61189;-73
2023/05/18 01:20:58;;;;;;;8.90;2.70;;;;;;;3.50;79.98;102084.92;108321;1259;59063;-74
2023/05/18 01:23:44;;;;;;;9.40;2.80;;;;;;;3.47;80.12;102083.17;108364;1259;73178;-74
2023/05/18 01:26:15;;;;;;;9.00;3.00;;;;;;;3.45;80.43;102083.47;108570;1259;71194;-73
2023/05/18 01:28:45;;;;;;;8.10;2.90;;;;;;;3.44;80.14;102082.54;108382;1259;71516;-74
2023/05/18 01:31:14;;;;;;;11.00;3.40;;;;;;;3.40;80.41;102084.46;108666;1259;59452;-73
2023/05/18 01:33:42;;;;;;;8.60;3.10;;;;;;;3.38;80.63;102082.91;108409;1259;60472;-73
2023/05/18 01:36:10;;;;;;;10.00;3.10;;;;;;;3.36;80.67;102082.14;108481;1259;74006;-74
2023/05/18 01:38:37;;;;;;;8.80;3.30;;;;;;;3.33;80.79;102083.71;108582;1259;71290;-74
2023/05/18 01:41:12;;;;;;;9.40;3.30;;;;;;;3.29;81.06;102086.05;108469;1259;71519;-74
2023/05/18 01:44:17;;;;;;;9.00;3.50;;;;;;;3.25;81.10;102085.75;108521;1259;60959;-73
2023/05/18 01:47:01;;;;;;;7.00;3.10;;;;;;;3.23;81.10;102084.98;108691;1259;61148;-73
2023/05/18 01:49:41;;;;;;;10.20;3.40;;;;;;;3.19;81.34;102084.19;108365;1260;72874;-73
2023/05/18 01:52:17;;;;;;;9.40;3.30;;;;;;;3.16;81.51;102087.35;108548;1259;70359;-74
2023/05/18 01:54:51;;;;;;;9.90;3.30;;;;;;;3.15;81.75;102092.33;108372;1260;72382;-74
2023/05/18 01:57:20;;;;;;;7.80;3.80;;;;;;;3.13;81.87;102090.71;108471;1259;60016;-74
2023/05/18 01:59:47;;;;;;;9.10;3.60;;;;;;;3.12;81.81;102091.42;108310;1259;60609;-74
2023/05/18 02:02:14;;;;;;;9.10;3.20;;;;;;;3.10;81.94;102091.52;108368;1262;73849;-73
2023/05/18 02:04:42;;;;;;;12.90;3.40;;;;;;;3.09;82.12;102090.06;108409;1259;71130;-73
2023/05/18 02:07:08;;;;;;;13.10;3.60;;;;;;;3.07;82.00;102093.14;108341;1259;74223;-73
2023/05/18 02:09:35;;;;;;;13.00;3.50;;;;;;;3.04;82.18;102094.55;108418;1260;60855;-73
2023/05/18 02:12:02;;;;;;;8.90;3.10;;;;;;;3.01;82.36;102092.98;108366;1260;61317;-73
2023/05/18 02:14:29;;;;;;;8.80;3.80;;;;;;;2.99;82.60;102092.91;108155;1261;74784;-73
2023/05/18 02:16:56;;;;;;;9.80;3.50;;;;;;;2.96;82.40;102093.30;108328;1260;70473;-74
2023/05/18 02:19:24;;;;;;;9.20;3.50;;;;;;;2.93;82.77;102090.52;108431;1260;72764;-73
2023/05/18 02:21:51;;;;;;;8.30;3.30;;;;;;;2.91;82.94;102086.92;108455;1259;61316;-74
2023/05/18 02:24:18;;;;;;;10.70;3.80;;;;;;;2.90;83.02;102088.07;108303;1261;59185;-74
2023/05/18 02:26:45;;;;;;;10.00;4.20;;;;;;;2.89;83.00;102084.29;108303;1266;74316;-73
2023/05/18 02:29:13;;;;;;;8.50;3.30;;;;;;;2.85;83.10;102083.21;108347;1259;71227;-73
2023/05/18 02:31:40;;;;;;;8.90;3.40;;;;;;;2.81;83.50;102086.95;108078;1266;72733;-73
2023/05/18 02:34:08;;;;;;;8.00;3.80;;;;;;;2.79;83.43;102086.02;108281;1259;60241;-74
2023/05/18 02:36:41;;;;;;;8.80;3.60;;;;;;;2.76;83.71;102086.20;108584;1259;59351;-73
2023/05/18 02:39:09;;;;;;;12.50;4.20;;;;;;;2.75;84.00;102088.91;108420;1260;73339;-74
2023/05/18 02:41:38;;;;;;;9.20;3.40;;;;;;;2.74;83.87;102091.04;108649;1259;71670;-74
2023/05/18 02:44:06;;;;;;;8.40;3.70;;;;;;;2.74;83.89;102090.54;108283;1259;72451;-74
2023/05/18 02:46:33;;;;;;;9.20;3.40;;;;;;;2.73;83.84;102091.50;108369;1259;61255;-74
2023/05/18 02:49:00;;;;;;;9.50;3.50;;;;;;;2.71;83.80;102092.27;108377;1261;59166;-74
2023/05/18 02:51:27;;;;;;;8.30;3.40;;;;;;;2.70;83.94;102093.39;108324;1261;73765;-73
2023/05/18 02:53:54;;;;;;;9.30;3.50;;;;;;;2.70;84.10;102095.48;108378;1260;70273;-73
2023/05/18 02:56:22;;;;;;;6.70;3.50;;;;;;;2.70;84.00;102098.98;108083;1260;71693;-74
2023/05/18 02:58:49;;;;;;;12.00;3.70;;;;;;;2.69;83.95;102100.11;108554;1260;61375;-74
2023/05/18 03:01:16;;;;;;;7.90;3.60;;;;;;;2.67;83.80;102097.08;108642;1261;60196;-74
2023/05/18 03:03:43;;;;;;;7.70;3.90;;;;;;;2.64;84.00;102097.56;108517;1260;73134;-74
2023/05/18 03:06:10;;;;;;;8.20;3.90;;;;;;;2.62;84.24;102099.96;108530;1259;69781;-73
2023/05/18 03:08:39;;;;;;;7.90;3.80;;;;;;;2.61;84.48;102097.08;108261;1259;71722;-73
2023/05/18 03:11:06;;;;;;;9.30;4.00;;;;;;;2.60;84.33;102100.09;108532;1260;61339;-74
2023/05/18 03:13:33;;;;;;;9.50;4.20;;;;;;;2.59;84.58;102100.30;108403;1261;58951;-73
2023/05/18 03:16:00;;;;;;;9.80;3.80;;;;;;;2.59;84.68;102102.42;108239;1260;73448;-73
2023/05/18 03:18:27;;;;;;;8.50;3.80;;;;;;;2.58;84.70;102102.61;108292;1260;71181;-73
2023/05/18 03:20:55;;;;;;;10.80;4.00;;;;;;;2.57;84.65;102104.45;108239;1265;71725;-74
2023/05/18 03:23:22;;;;;;;7.80;3.90;;;;;;;2.55;84.94;102103.17;108666;1261;60698;-73
2023/05/18 03:25:52;;;;;;;10.80;3.70;;;;;;;2.55;84.86;102105.98;108219;1261;60197;-73
2023/05/18 03:28:19;;;;;;;8.20;3.70;;;;;;;2.53;84.54;102105.55;108452;1261;73189;-74
2023/05/18 03:30:46;;;;;;;8.40;3.80;;;;;;;2.52;84.60;102106.82;108396;1260;71269;-74
2023/05/18 03:33:13;;;;;;;10.70;3.90;;;;;;;2.53;85.15;102109.05;108382;1262;72010;-73
2023/05/18 03:35:40;;;;;;;8.20;3.80;;;;;;;2.54;84.78;102106.73;108273;1259;61137;-73
2023/05/18 03:38:07;;;;;;;9.60;3.90;;;;;;;2.55;85.15;102110.00;108389;1259;60299;-73
2023/05/18 03:40:35;;;;;;;9.60;4.00;;;;;;;2.56;84.97;102109.77;108060;1259;74747;-73
2023/05/18 03:43:02;;;;;;;8.40;4.00;;;;;;;2.57;85.24;102113.54;108080;1266;70451;-73
2023/05/18 03:45:29;;;;;;;9.40;4.00;;;;;;;2.57;85.23;102108.81;108333;1260;71401;-74
2023/05/18 03:47:56;;;;;;;8.10;3.90;;;;;;;2.57;85.30;102108.98;108121;1261;61260;-73
2023/05/18 03:50:24;;;;;;;13.10;3.60;;;;;;;2.58;85.23;102109.83;108250;1259;59211;-73
2023/05/18 03:52:51;;;;;;;11.30;4.40;;;;;;;2.59;85.17;102109.92;108331;1260;74676;-73
2023/05/18 03:55:20;;;;;;;9.60;4.10;;;;;;;2.61;85.49;102109.83;108150;1266;71234;-73
2023/05/18 03:57:47;;;;;;;10.80;4.10;;;;;;;2.64;85.46;102109.95;108323;1260;71629;-73
2023/05/18 04:00:15;;;;;;;13.10;4.20;;;;;;;2.68;85.53;102115.19;108233;1260;60774;-74
2023/05/18 04:02:42;;;;;;;13.30;4.70;;;;;;;2.72;85.73;102116.52;108165;1259;59021;-73
2023/05/18 04:05:09;;;;;;;9.10;4.20;;;;;;;2.76;85.85;102115.38;108159;1261;74713;-74
2023/05/18 04:07:42;;;;;;;8.70;4.30;;;;;;;2.82;85.85;102120.45;108270;1261;70168;-73
2023/05/18 04:10:11;;;;;;;9.20;4.40;;;;;;;2.88;85.73;102115.22;108093;1261;73127;-74
2023/05/18 04:12:38;;;;;;;8.00;3.80;;;;;;;2.95;85.89;102117.82;108412;1261;59686;-74
2023/05/18 04:15:05;;;;;;;7.50;3.60;;;;;;;3.00;85.61;102117.46;108355;1261;61109;-74
2023/05/18 04:17:34;;;;;;;10.40;3.60;;;;;;;3.07;85.75;102120.91;108444;1260;74669;-73
2023/05/18 04:20:10;;;;;;;10.30;3.90;;;;;;;3.14;85.29;102124.55;108316;1260;71022;-74
2023/05/18 04:22:42;;;;;;;8.10;4.20;;;;;;;3.23;85.55;102126.81;108304;1260;73190;-74
2023/05/18 04:25:13;;;;;;;11.00;4.40;;;;;;;3.31;85.35;102132.26;108361;1260;61214;-74
2023/05/18 04:27:46;;;;;;;8.00;3.60;;;;;;;3.39;85.36;102133.68;108248;1260;59251;-74
2023/05/18 04:30:17;;;;;;;8.80;4.50;;;;;;;3.47;85.02;102137.57;108321;1260;73533;-74
2023/05/18 04:32:44;;;;;;;9.40;4.20;;;;;;;3.54;84.98;102139.10;108377;1261;71520;-74
2023/05/18 04:35:12;;;;;;;7.50;3.80;;;;;;;3.61;84.74;102139.86;108303;1260;71316;-74
2023/05/18 04:37:39;;;;;;;8.30;3.60;;;;;;;3.71;85.37;102138.59;108018;1260;61203;-74
2023/05/18 04:40:07;;;;;;;8.10;3.50;;;;;;;3.81;84.99;102144.42;108328;1260;61260;-75
2023/05/18 04:42:37;;;;;;;10.00;3.90;;;;;;;3.93;85.15;102144.23;108345;1261;73767;-74
2023/05/18 04:45:04;;;;;;;9.00;3.70;;;;;;;4.03;84.98;102146.36;108291;1260;69948;-72
2023/05/18 04:47:32;;;;;;;6.90;4.00;;;;;;;4.14;84.88;102144.46;108359;1260;72761;-72
2023/05/18 04:49:59;;;;;;;8.10;3.90;;;;;;;4.28;84.84;102150.05;108435;1259;60301;-73
2023/05/18 04:52:29;;;;;;;11.00;3.70;;;;;;;4.40;84.98;102152.42;108202;1260;59365;-72
2023/05/18 04:54:56;;;;;;;8.50;3.60;;;;;;;4.52;84.25;102146.63;108290;1260;74850;-72
2023/05/18 04:57:23;;;;;;;7.30;3.30;;;;;;;4.62;84.11;102148.60;108143;1260;69980;-72
2023/05/18 04:59:52;;;;;;;10.20;3.70;;;;;;;4.71;83.62;102150.27;108244;1261;70606;-72
2023/05/18 05:02:19;;;;;;;8.10;3.00;;;;;;;4.83;83.42;102147.67;108132;1259;60067;-72
2023/05/18 05:04:46;;;;;;;9.40;3.10;;;;;;;4.97;83.09;102149.63;108155;1260;60218;-72
2023/05/18 05:07:13;;;;;;;8.80;3.10;;;;;;;5.08;82.42;102148.88;108468;1260;73326;-72
2023/05/18 05:09:40;;;;;;;9.20;2.90;;;;;;;5.19;82.08;102148.43;108329;1260;69991;-72
2023/05/18 05:12:07;;;;;;;8.60;2.90;;;;;;;5.33;81.78;102149.98;108413;1261;72836;-73
2023/05/18 05:14:34;;;;;;;8.10;3.00;;;;;;;5.45;81.34;102147.60;108339;1260;60018;-72
2023/05/18 05:17:01;;;;;;;8.90;2.90;;;;;;;5.56;80.98;102146.29;108502;1261;58938;-72
2023/05/18 05:19:28;;;;;;;11.30;3.10;;;;;;;5.69;80.60;102154.30;108436;1260;73477;-72
2023/05/18 05:21:55;;;;;;;7.20;2.50;;;;;;;5.83;80.36;102152.16;108325;1260;70891;-73
2023/05/18 05:24:22;;;;;;;10.30;2.90;;;;;;;5.94;79.43;102151.88;108421;1260;73079;-73
2023/05/18 05:26:49;;;;;;;9.50;3.10;;;;;;;6.02;79.13;102153.77;108198;1260;59967;-73
2023/05/18 05:29:16;;;;;;;7.10;2.90;;;;;;;6.15;79.16;102154.09;108475;1260;59266;-73
2023/05/18 05:31:43;;;;;;;9.30;2.70;;;;;;;6.30;78.78;102156.92;108273;1260;74013;-72
2023/05/18 05:34:10;;;;;;;10.10;2.90;;;;;;;6.43;78.22;102160.67;108291;1260;69682;-74
2023/05/18 05:36:38;;;;;;;7.10;2.80;;;;;;;6.56;78.00;102165.72;108365;1260;70726;-73
2023/05/18 05:39:05;;;;;;;7.60;2.80;;;;;;;6.67;77.56;102157.86;108449;1261;61175;-73
2023/05/18 05:41:32;;;;;;;8.00;3.00;;;;;;;6.80;77.35;102158.88;108337;1259;61145;-73
2023/05/18 05:43:59;;;;;;;10.80;2.90;;;;;;;6.93;77.38;102159.09;108347;1260;73551;-73
2023/05/18 05:46:25;;;;;;;7.70;2.90;;;;;;;7.11;77.41;102160.55;108074;1261;70077;-72
2023/05/18 05:48:52;;;;;;;9.00;3.30;;;;;;;7.29;77.16;102158.67;108385;1260;73164;-72
2023/05/18 05:51:19;;;;;;;7.20;2.60;;;;;;;7.45;76.68;102164.84;108543;1261;61283;-73
2023/05/18 05:53:48;;;;;;;6.20;2.50;;;;;;;7.61;76.20;102168.90;108356;1260;60072;-73
2023/05/18 05:56:15;;;;;;;6.80;2.40;;;;;;;7.75;75.24;102169.06;108350;1260;75946;-74
2023/05/18 05:58:43;;;;;;;6.10;2.80;;;;;;;7.89;74.71;102172.52;108288;1261;69843;-73
2023/05/18 06:01:10;;;;;;;8.20;3.20;;;;;;;8.05;74.06;102173.54;108128;1260;72064;-74
2023/05/18 06:03:37;;;;;;;9.20;2.90;;;;;;;8.18;73.19;102176.21;108379;1260;60222;-74
2023/05/18 06:06:05;;;;;;;9.50;2.70;;;;;;;8.31;72.34;102179.07;108466;1260;61330;-74
2023/05/18 06:08:33;;;;;;;10.20;3.30;;;;;;;8.42;71.60;102179.76;108363;1259;73786;-73
2023/05/18 06:11:00;;;;;;;6.60;2.40;;;;;;;8.55;70.82;102183.50;108423;1260;68956;-72
2023/05/18 06:13:26;;;;;;;8.90;3.00;;;;;;;8.64;69.94;102179.40;108358;1260;71502;-71
2023/05/18 06:15:54;;;;;;;8.90;2.80;;;;;;;8.73;69.44;102183.22;108393;1259;61327;-72
2023/05/18 06:18:21;;;;;;;5.80;2.50;;;;;;;8.87;69.58;102177.30;108266;1260;60669;-72
2023/05/18 06:20:48;;;;;;;8.60;2.90;;;;;;;9.02;68.96;102182.09;108249;1260;73971;-71
2023/05/18 06:23:15;;;;;;;8.40;2.70;;;;;;;9.16;68.23;102182.66;108423;1260;70072;-72
2023/05/18 06:25:41;;;;;;;7.10;2.80;;;;;;;9.31;68.11;102181.45;108340;1259;70690;-71
2023/05/18 06:28:09;;;;;;;7.10;2.50;;;;;;;9.47;67.74;102184.35;108353;1260;60408;-71
2023/05/18 06:30:36;;;;;;;9.10;3.10;;;;;;;9.61;66.88;102177.48;108412;1260;59182;-71
2023/05/18 06:33:03;;;;;;;6.20;2.40;;;;;;;9.78;66.95;102178.50;108559;1259;73138;-73
2023/05/18 06:35:30;;;;;;;5.50;2.10;;;;;;;9.88;64.55;102181.36;108512;1260;70588;-74
2023/05/18 06:37:58;;;;;;;8.40;2.30;;;;;;;9.84;63.09;102185.16;108686;1260;72731;-74
2023/05/18 06:40:24;;;;;;;6.00;2.00;;;;;;;9.82;62.20;102188.89;108224;1259;61716;-73
2023/05/18 06:42:52;;;;;;;8.30;2.40;;;;;;;9.73;61.76;102187.36;108442;1260;59095;-73
2023/05/18 06:45:18;;;;;;;7.20;2.10;;;;;;;9.78;62.86;102188.89;106590;1261;73419;-73
2023/05/18 06:47:45;;;;;;;5.60;2.00;;;;;;;9.90;62.18;102191.23;106229;1263;71203;-74
2023/05/18 06:50:12;;;;;;;5.70;2.30;;;;;;;9.99;61.40;102190.80;106075;1260;72417;-73
2023/05/18 06:52:39;;;;;;;6.80;2.10;;;;;;;10.09;60.68;102186.73;106160;1260;62432;-73
2023/05/18 06:55:07;;;;;;;7.40;2.60;;;;;;;10.20;60.35;102185.92;106459;1260;61208;-73
2023/05/18 06:57:35;;;;;;;7.40;2.50;;;;;;;10.28;59.49;102188.08;106118;1260;73491;-74
2023/05/18 07:00:05;;;;;;;6.20;2.50;;;;;;;10.33;59.02;102188.23;106028;1266;70051;-74
2023/05/18 07:02:33;;;;;;;6.40;2.70;;;;;;;10.40;58.71;102190.74;106011;1263;71163;-75
2023/05/18 07:05:00;;;;;;;6.80;2.40;;;;;;;10.43;57.98;102192.45;105731;1261;61206;-74
2023/05/18 07:07:27;;;;;;;9.80;2.40;;;;;;;10.51;58.32;102190.29;106159;1259;61282;-73
2023/05/18 07:09:54;;;;;;;8.30;2.60;;;;;;;10.60;58.24;102189.50;106151;1261;75211;-73
2023/05/18 07:12:21;;;;;;;6.30;2.50;;;;;;;10.68;57.53;102191.42;106647;1259;70114;-72
2023/05/18 07:14:48;;;;;;;6.90;2.50;;;;;;;10.76;57.24;102194.95;105968;1259;71496;-72
2023/05/18 07:17:15;;;;;;;7.40;2.60;;;;;;;10.85;56.79;102196.98;106171;1261;63022;-72
2023/05/18 07:19:42;;;;;;;6.70;2.40;;;;;;;10.92;56.75;102197.38;106222;1264;61310;-73
2023/05/18 07:22:09;;;;;;;5.90;2.30;;;;;;;10.99;56.33;102192.98;105954;1260;73775;-75
2023/05/18 07:24:36;;;;;;;9.20;2.60;;;;;;;11.11;56.66;102189.67;105984;1262;69845;-73
2023/05/18 07:27:03;;;;;;;8.60;2.30;;;;;;;11.25;56.08;102191.20;105952;1260;70561;-72
2023/05/18 07:29:30;;;;;;;8.00;2.40;;;;;;;11.33;55.55;102195.88;106102;1260;61334;-73
2023/05/18 07:31:57;;;;;;;6.50;2.80;;;;;;;11.40;55.22;102193.96;106295;1261;61169;-72
2023/05/18 07:34:26;;;;;;;8.10;2.50;;;;;;;11.49;54.79;102196.91;106138;1259;73161;-76
2023/05/18 07:36:53;;;;;;;8.00;3.10;;;;;;;11.58;54.90;102200.88;106036;1259;69399;-72
2023/05/18 07:39:27;;;;;;;9.40;2.90;;;;;;;11.70;55.19;102197.00;106432;1266;71452;-74
2023/05/18 07:41:54;;;;;;;6.90;2.70;;;;;;;11.87;54.71;102198.13;105923;1259;61344;-73
2023/05/18 07:44:23;;;;;;;7.70;2.70;;;;;;;11.96;53.58;102197.83;106064;1261;61350;-73
2023/05/18 07:46:50;;;;;;;9.10;2.60;;;;;;;12.03;53.74;102193.34;106120;1260;74814;-73
2023/05/18 07:49:17;;;;;;;5.80;2.30;;;;;;;12.12;53.30;102190.02;106003;1264;70108;-74
2023/05/18 07:51:44;;;;;;;10.00;2.80;;;;;;;12.25;53.79;102191.23;106483;1259;73345;-73
2023/05/18 07:54:11;;;;;;;6.40;2.70;;;;;;;12.37;52.22;102194.54;106144;1259;61271;-74
2023/05/18 07:56:39;;;;;;;8.80;2.60;;;;;;;12.37;51.83;102188.38;106146;1259;61250;-72
2023/05/18 07:59:08;;;;;;;8.60;2.60;;;;;;;12.43;52.12;102192.55;105759;1260;74684;-73
2023/05/18 08:01:36;;;;;;;9.40;3.00;;;;;;;12.52;51.87;102195.24;106224;1260;71247;-73
2023/05/18 08:04:03;;;;;;;7.60;3.00;;;;;;;12.54;51.13;102198.23;106150;1259;71463;-73
2023/05/18 08:06:30;;;;;;;6.60;2.70;;;;;;;12.45;51.06;102192.64;105934;1260;61232;-73
2023/05/18 08:08:57;;;;;;;6.50;2.80;;;;;;;12.28;50.49;102192.77;106267;1261;61256;-71
2023/05/18 08:11:24;;;;;;;7.50;3.00;;;;;;;12.13;50.67;102188.57;105915;1259;73455;-74
2023/05/18 08:13:51;;;;;;;6.30;2.90;;;;;;;12.16;51.46;102190.33;106173;1259;71203;-72
2023/05/18 08:16:18;;;;;;;10.00;3.00;;;;;;;12.30;52.00;102193.41;105883;1259;71150;-73
2023/05/18 08:18:45;;;;;;;7.10;2.80;;;;;;;12.50;51.88;102199.34;105857;1259;61375;-72
2023/05/18 08:21:12;;;;;;;6.10;2.30;;;;;;;12.70;51.96;102199.11;105792;1264;61689;-73
2023/05/18 08:23:39;;;;;;;8.50;2.70;;;;;;;12.91;51.18;102193.30;105893;1266;73692;-75
2023/05/18 08:26:07;;;;;;;7.70;3.00;;;;;;;13.07;50.32;102194.34;105827;1259;220925;-74
2023/05/18 08:28:35;;;;;;;7.90;2.70;;;;;;;13.23;49.99;102194.02;106363;1259;72620;-74
2023/05/18 08:31:02;;;;;;;7.70;2.90;;;;;;;13.37;49.49;102196.69;105903;1260;61274;-73
2023/05/18 08:33:31;;;;;;;5.20;2.50;;;;;;;13.44;47.93;102194.93;106019;1267;63618;-74
2023/05/18 08:35:58;;;;;;;6.40;2.90;;;;;;;13.56;48.73;102188.70;105944;1259;72140;-73
2023/05/18 08:38:25;;;;;;;9.40;3.20;;;;;;;13.68;47.86;102175.95;106168;1259;70886;-74
2023/05/18 08:41:00;;;;;;;8.50;3.20;;;;;;;13.80;48.24;102174.52;106113;1259;72671;-73
2023/05/18 08:43:32;;;;;;;7.00;2.70;;;;;;;13.83;46.86;102167.05;105793;1260;61411;-73
2023/05/18 08:46:18;;;;;;;8.20;2.80;;;;;;;13.84;46.94;102166.98;106425;1259;62010;-74
2023/05/18 08:48:46;;;;;;;7.40;2.60;;;;;;;13.91;47.76;102165.04;105741;1261;73902;-73
2023/05/18 08:51:18;;;;;;;7.10;2.70;;;;;;;13.95;47.65;102164.58;106096;1260;69026;-74
2023/05/18 08:53:51;;;;;;;7.70;2.70;;;;;;;13.82;46.22;102166.27;106017;1259;71778;-73
2023/05/18 08:56:21;;;;;;;8.80;2.90;;;;;;;13.62;46.23;102165.38;105721;1259;61315;-71
2023/05/18 08:58:51;;;;;;;7.10;2.60;;;;;;;13.49;46.72;102170.94;105867;1260;61299;-74
2023/05/18 09:01:17;;;;;;;9.30;2.80;;;;;;;13.59;47.25;102164.42;105752;1259;73486;-73
2023/05/18 09:03:49;;;;;;;7.60;2.50;;;;;;;13.76;47.36;102161.37;105799;1267;70152;-74
2023/05/18 09:06:18;;;;;;;6.90;2.50;;;;;;;14.04;47.25;102166.13;106187;1261;72401;-73
2023/05/18 09:08:45;;;;;;;9.80;2.70;;;;;;;14.32;46.69;102162.66;105863;1261;61753;-75
2023/05/18 09:11:13;;;;;;;8.70;2.80;;;;;;;14.60;46.53;102161.82;105929;1261;62227;-73
2023/05/18 09:13:42;;;;;;;7.70;2.60;;;;;;;14.85;45.72;102162.27;106127;1260;73180;-75
2023/05/18 09:16:08;;;;;;;7.90;2.60;;;;;;;15.06;44.87;102161.03;105752;1261;71181;-73
2023/05/18 09:18:35;;;;;;;5.90;2.20;;;;;;;15.30;45.11;102159.89;105847;1262;71783;-73
2023/05/18 09:21:02;;;;;;;8.30;2.70;;;;;;;15.31;43.31;102159.75;105720;1264;61280;-73
2023/05/18 09:23:29;;;;;;;7.90;3.20;;;;;;;15.30;43.90;102157.69;106398;1260;61283;-75
2023/05/18 09:25:58;;;;;;;6.00;2.40;;;;;;;15.25;43.36;102154.28;105659;1261;73471;-78
2023/05/18 09:28:34;;;;;;;5.70;2.70;;;;;;;15.05;43.88;102149.20;106040;1259;71271;-74
2023/05/18 09:31:02;;;;;;;7.40;2.50;;;;;;;15.05;43.88;102149.59;105922;1260;71232;-75
2023/05/18 09:33:36;;;;;;;8.10;2.70;;;;;;;15.18;43.91;102150.29;106303;1260;62865;-76
2023/05/18 09:36:07;;;;;;;6.90;2.40;;;;;;;15.49;44.03;102147.97;106025;1260;61782;-75
2023/05/18 09:38:39;;;;;;;8.50;2.60;;;;;;;15.77;43.52;102143.08;105991;1260;73584;-74
2023/05/18 09:41:11;;;;;;;8.90;2.40;;;;;;;15.96;42.70;102145.02;105965;1260;70399;-75
2023/05/18 09:43:39;;;;;;;7.40;2.70;;;;;;;16.13;42.48;102143.91;106283;1259;72276;-74
2023/05/18 09:46:10;;;;;;;8.90;2.60;;;;;;;16.32;42.50;102145.22;105652;1260;61378;-74
2023/05/18 09:48:41;;;;;;;5.70;2.20;;;;;;;16.46;42.20;102145.27;106101;1259;61730;-74
2023/05/18 09:51:15;;;;;;;7.10;2.50;;;;;;;16.51;41.02;102143.45;106074;1262;75277;-74
2023/05/18 09:53:48;;;;;;;6.40;2.30;;;;;;;16.49;41.55;102144.17;105958;1260;70892;-74
2023/05/18 09:56:16;;;;;;;6.50;2.70;;;;;;;16.53;41.92;102142.54;106064;1259;72618;-76
2023/05/18 09:58:44;;;;;;;6.30;2.50;;;;;;;16.67;41.78;102139.53;106003;1260;61277;-76
2023/05/18 10:01:11;;;;;;;5.60;2.20;;;;;;;16.86;42.15;102143.02;106076;1259;61258;-74
2023/05/18 10:03:39;;;;;;;6.20;2.80;;;;;;;17.11;41.55;102145.89;105701;1259;74228;-74
2023/05/18 10:06:12;;;;;;;5.20;2.20;;;;;;;17.33;40.26;102147.09;106044;1262;68955;-74
2023/05/18 10:08:39;;;;;;;7.90;2.70;;;;;;;17.43;39.11;102147.84;105888;1260;71579;-76
2023/05/18 10:11:06;;;;;;;6.40;1.90;;;;;;;17.46;38.84;102146.17;105711;1267;61231;-74
2023/05/18 10:13:34;;;;;;;6.30;2.20;;;;;;;17.52;38.77;102142.27;105777;1260;62456;-75
2023/05/18 10:16:04;;;;;;;7.40;2.40;;;;;;;17.61;38.50;102135.50;105996;1259;72598;-74
2023/05/18 10:18:34;;;;;;;5.60;2.10;;;;;;;17.69;39.03;102132.80;106252;1260;72750;-75
2023/05/18 10:21:03;;;;;;;5.90;1.90;;;;;;;17.81;38.94;102131.59;106734;1263;72818;-74
2023/05/18 10:23:32;;;;;;;6.40;2.50;;;;;;;17.88;38.55;102130.02;106489;1260;61258;-76
2023/05/18 10:25:59;;;;;;;6.50;2.40;;;;;;;17.97;38.03;102131.30;106406;1261;62190;-75
2023/05/18 10:28:36;;;;;;;6.80;2.70;;;;;;;18.02;37.92;102127.89;106359;1260;75156;-77
2023/05/18 10:31:05;;;;;;;6.50;2.60;;;;;;;17.98;37.72;102128.48;106114;1260;69643;-74
2023/05/18 10:33:34;;;;;;;6.90;2.30;;;;;;;17.97;38.31;102127.18;106420;1259;72737;-74
2023/05/18 10:36:03;;;;;;;7.20;2.30;;;;;;;18.03;38.40;102126.09;106256;1261;61131;-74
2023/05/18 10:38:32;;;;;;;7.70;2.50;;;;;;;18.09;37.89;102125.58;106667;1261;60354;-75
2023/05/18 10:41:00;;;;;;;6.50;2.70;;;;;;;18.22;38.12;102123.61;106383;1260;75073;-73
2023/05/18 10:43:27;;;;;;;6.20;2.00;;;;;;;18.38;37.16;102121.70;106280;1263;69977;-73
2023/05/18 10:45:57;;;;;;;4.90;1.80;;;;;;;18.31;36.56;102119.69;106459;1259;71502;-75
2023/05/18 10:48:25;;;;;;;4.30;1.80;;;;;;;18.29;36.57;102116.86;106427;1259;61347;-75
2023/05/18 10:50:54;;;;;;;6.90;2.10;;;;;;;18.37;36.54;102115.30;106176;1260;61666;-74
2023/05/18 10:53:25;;;;;;;5.90;2.20;;;;;;;18.42;37.05;102116.29;106215;1261;75050;-74
2023/05/18 10:55:53;;;;;;;6.20;2.10;;;;;;;18.50;37.32;102113.02;106766;1259;70051;-74
2023/05/18 10:58:24;;;;;;;6.70;1.90;;;;;;;18.56;36.73;102112.40;106498;1260;71508;-75
2023/05/18 11:00:54;;;;;;;6.30;2.00;;;;;;;18.51;36.32;102110.27;105944;1260;61533;-75
2023/05/18 11:03:21;;;;;;;5.50;2.10;;;;;;;18.53;36.58;102104.61;106211;1260;61260;-74
2023/05/18 11:05:51;;;;;;;6.40;2.20;;;;;;;18.60;36.57;102104.99;106293;1259;74648;-75
2023/05/18 11:08:28;;;;;;;4.70;1.90;;;;;;;18.62;36.46;102103.36;106548;1259;69778;-73
2023/05/18 11:11:06;;;;;;;5.60;1.90;;;;;;;18.53;35.68;102099.98;105973;1259;72918;-73
2023/05/18 11:13:42;;;;;;;6.30;2.10;;;;;;;18.62;36.94;102094.96;106614;1259;61238;-74
2023/05/18 11:16:09;;;;;;;6.80;2.20;;;;;;;18.71;36.79;102094.66;106333;1261;61282;-74
2023/05/18 11:18:49;;;;;;;5.50;2.00;;;;;;;18.84;36.60;102088.93;106385;1261;73128;-74
2023/05/18 11:21:20;;;;;;;5.20;2.00;;;;;;;18.92;35.50;102086.05;106421;1262;69727;-74
2023/05/18 11:24:06;;;;;;;5.00;1.80;;;;;;;18.93;34.83;102086.16;106132;1260;71870;-75
2023/05/18 11:26:37;;;;;;;7.70;1.90;;;;;;;18.88;34.58;102088.00;106366;1264;61277;-75
2023/05/18 11:29:18;;;;;;;5.90;2.00;;;;;;;18.91;35.09;102082.14;106605;1259;61157;-75